WetterOnline ( https://www.wetteronline.de )

Wetter aktuell Ueckermünde

Aktuelles Wetter: Ueckermünde (7m)

6-stündlich | Neueste Meldungen
Ortszeit Temperatur Wetter
Do, 17.10. 2:00 9.5° C wolkenlos
Mi, 16.10. 20:00 12.5° C Sprühregen
Mi, 16.10. 14:00 13.4° C leichter Regen
Mi, 16.10. 8:00 9.6° C Nebel
Mi, 16.10. 2:00 9.4° C Nebel
Di, 15.10. 20:00 14.2° C wolkig
Di, 15.10. 14:00 20.7° C leicht bewölkt
Di, 15.10. 8:00 11.1° C leicht bewölkt
Ortszeit Temperatur Wetter
Do, 17.10. 5:00 9.6° C bedeckt
Do, 17.10. 4:30 9.5° C bewölkt
Do, 17.10. 4:20 9.5° C bewölkt
Do, 17.10. 4:10 9.3° C wolkig
Do, 17.10. 4:00 9.0° C fast wolkenlos
Do, 17.10. 3:50 9.0° C wolkenlos
Do, 17.10. 3:30 8.9° C wolkenlos
Do, 17.10. 3:00 9.3° C wolkenlos
Do, 17.10. 2:30 9.3° C wolkenlos
Do, 17.10. 2:00 9.5° C wolkenlos
Do, 17.10. 1:30 9.6° C wolkenlos
Ortszeit Relative Feuchte Sichtweite
Do, 17.10. 2:00 98% 7 km
Mi, 16.10. 20:00 95% 17 km
Mi, 16.10. 14:00 98% 10 km
Mi, 16.10. 8:00 100% 0.6 km
Mi, 16.10. 2:00 100% <100 m
Di, 15.10. 20:00 96% 8 km
Di, 15.10. 14:00 65% 21 km
Di, 15.10. 8:00 91% 21 km
Ortszeit Relative Feuchte Sichtweite
Do, 17.10. 5:00 97% 13 km
Do, 17.10. 4:30 98% 11 km
Do, 17.10. 4:20 98% -
Do, 17.10. 4:10 98% -
Do, 17.10. 4:00 98% 9 km
Do, 17.10. 3:50 98% -
Do, 17.10. 3:30 98% 8 km
Do, 17.10. 3:00 98% 7 km
Do, 17.10. 2:30 99% 6 km
Do, 17.10. 2:00 98% 7 km
Do, 17.10. 1:30 98% 7 km
Ortszeit Niederschlagsmenge Niederschlagsart
Do, 17.10. 2:00 0.1 l/m2 in 6 Std. Sprühregen
Mi, 16.10. 20:00 12 l/m2 in 12 Std. Regen
Mi, 16.10. 14:00 3 l/m2 in 6 Std. Regen
Mi, 16.10. 8:00 0.0 l/m2 in 12 Std. -
Mi, 16.10. 2:00 0.0 l/m2 in 6 Std. -
Di, 15.10. 20:00 0.0 l/m2 in 12 Std. -
Di, 15.10. 14:00 0.0 l/m2 in 6 Std. -
Di, 15.10. 8:00 0.0 l/m2 in 12 Std. -
Ortszeit Niederschlagsmenge Niederschlagsart
Do, 17.10. 5:00 0.0 l/m2 in 1 Std. -
Do, 17.10. 4:30 0.0 l/m2 in 1 Std. -
Do, 17.10. 4:20 keine Meldung -
Do, 17.10. 4:10 keine Meldung -
Do, 17.10. 4:00 0.0 l/m2 in 1 Std. -
Do, 17.10. 3:50 keine Meldung -
Do, 17.10. 3:30 0.0 l/m2 in 1 Std. -
Do, 17.10. 3:00 0.0 l/m2 in 1 Std. -
Do, 17.10. 2:30 0.0 l/m2 in 1 Std. -
Do, 17.10. 2:00 0.0 l/m2 in 1 Std. Sprühregen
Do, 17.10. 1:30 0.0 l/m2 in 1 Std. -
Ortszeit Stärke Spitze Richtung
km/h Bft. km/h Grad Sektor
Do, 17.10. 2:00 11 2 32 200° S
Mi, 16.10. 20:00 22 4 40 250° W
Mi, 16.10. 14:00 15 3 26 230° SW
Mi, 16.10. 8:00 4 1 11 230° SW
Mi, 16.10. 2:00 0 0 11 - -
Di, 15.10. 20:00 7 2 22 120° SO
Di, 15.10. 14:00 11 2 22 140° SO
Di, 15.10. 8:00 7 2 22 120° SO
Ortszeit Stärke Spitze Richtung
km/h Bft. km/h Grad Sektor
Do, 17.10. 5:00 14 3 22 190° S
Do, 17.10. 4:30 11 2 19 190° S
Do, 17.10. 4:20 11 2 - 190° S
Do, 17.10. 4:10 11 2 - 190° S
Do, 17.10. 4:00 13 3 19 190° S
Do, 17.10. 3:50 13 3 - 190° S
Do, 17.10. 3:30 11 2 14 200° S
Do, 17.10. 3:00 14 3 18 190° S
Do, 17.10. 2:30 13 3 17 190° S
Do, 17.10. 2:00 11 2 18 200° S
Do, 17.10. 1:30 11 2 18 200° S
Ortszeit Untergrenze Bedeckung Gattung
total tief tief mittel hoch
Do, 17.10. 2:00 - 0/8 0/8 - - -
Mi, 16.10. 20:00 270 m 7/8 7/8 - - -
Mi, 16.10. 14:00 120 m 7/8 7/8 - - -
Mi, 16.10. 8:00 30 m 7/8 7/8 - - -
Mi, 16.10. 2:00 <30 m 6/8 0/8 - - -
Di, 15.10. 20:00 9000 m 8/8 0/8 - - -
Di, 15.10. 14:00 7500 m 8/8 0/8 - - -
Di, 15.10. 8:00 9000 m 3/8 0/8 - - -
Ortszeit Bedeckungsgrad in Achtel und Wolkenuntergrenze
Do, 17.10. 5:00 8(1290m)
Do, 17.10. 4:30 7(1380m)
Do, 17.10. 4:20 7(1380m)
Do, 17.10. 4:10 5(1410m)
Do, 17.10. 4:00 3(1470m)
Do, 17.10. 3:50 keine Wolken
Do, 17.10. 3:30 keine Wolken
Do, 17.10. 3:00 keine Wolken
Do, 17.10. 2:30 keine Wolken
Do, 17.10. 2:00 keine Wolken
Do, 17.10. 1:30 keine Wolken
Ortszeit Luftdruck NN (hPa) Tendenz (hPa in 3 Std.)
Do, 17.10. 2:00 1011 + 0,9
Mi, 16.10. 20:00 1009 + 2,1
Mi, 16.10. 14:00 1006 + 1,1
Mi, 16.10. 8:00 1004 - 0,3
Mi, 16.10. 2:00 1005 - 1,3
Di, 15.10. 20:00 1006 + 0,2
Di, 15.10. 14:00 1007 - 2,2
Di, 15.10. 8:00 1010 - 1,4
Ortszeit Luftdruck NN (hPa) Tendenz (hPa in 3 Std.)
Do, 17.10. 5:00 1011 0,0
Do, 17.10. 4:30 1011 0,0
Do, 17.10. 4:20 1011 keine Meldung
Do, 17.10. 4:10 1011 keine Meldung
Do, 17.10. 4:00 1011 + 0,3
Do, 17.10. 3:50 1011 keine Meldung
Do, 17.10. 3:30 1011 + 0,5
Do, 17.10. 3:00 1011 + 0,6
Do, 17.10. 2:30 1011 + 0,7
Do, 17.10. 2:00 1011 + 0,9
Do, 17.10. 1:30 1011 + 0,9
Ortszeit Schneehöhe (cm)
Do, 17.10. 2:00 0
Mi, 16.10. 20:00 0
Mi, 16.10. 14:00 0
Mi, 16.10. 8:00 0
Mi, 16.10. 2:00 0
Di, 15.10. 20:00 0
Di, 15.10. 14:00 0
Di, 15.10. 8:00 0
Ortszeit Schneehöhe (cm)
Do, 17.10. 5:00 0
Do, 17.10. 4:30 0
Do, 17.10. 4:20 0
Do, 17.10. 4:10 0
Do, 17.10. 4:00 0
Do, 17.10. 3:50 0
Do, 17.10. 3:30 0
Do, 17.10. 3:00 0
Do, 17.10. 2:30 0
Do, 17.10. 2:00 0
Do, 17.10. 1:30 0
Link zu dieser Seite / Seite empfehlen

Das Wetter in ...